Nunarsuit

KL  EN  DA
ASIAQ
Weather Now GREENLAND SURVEY
Updated [WGT/WGST] Temperature [°C] Wind [m/s] Air pressure [hPa] Relative humidity [%] Precipitation [mm]
Present Wind chill Speed Max
30.11 17:00-0,7-10,922,7 ⇘27,399066n/a
30.11 16:00-0,7-10,721,6 ⇘28,398970n/a
30.11 15:00-0,7-10,319,6 ⇘24,798874n/a
30.11 14:00-0,8-10,118,0 ⇘22,198869n/a
30.11 13:00-1,0-9,815,4 ⇘19,098868n/a
30.11 12:00-2,0-10,813,9 ⇘16,098890n/a
30.11 11:00-2,1-10,913,4 ⇘15,498994n/a
30.11 10:00-2,1-10,211,3 ⇘13,999096n/a
30.11 09:00-2,4-10,510,8 ⇘13,999195n/a
30.11 08:00-2,5-10,811,3 ⇓14,499194n/a
30.11 07:00-1,6-9,310,3 ⇘13,999276n/a
30.11 06:00-0,9-8,29,8 ⇘12,999373n/a
30.11 05:00-1,3-8,18,2 ⇘10,899571n/a
30.11 04:00-1,9-8,26,7 ⇘8,299679n/a
30.11 03:00-1,1-6,45,1 ⇒7,799769n/a
30.11 02:00-1,4-5,33,1 ⇘4,199963n/a
30.11 01:00-1,8-7,25,1 ⇙5,7100063n/a
30.11 00:00-2,3-8,76,7 ⇙7,2100169n/a
29.11 23:00-2,2-8,15,7 ⇙7,2100368n/a
29.11 22:00-2,2-6,73,6 ⇐6,2100573n/a
29.11 21:00-2,0-4,92,1 ⇐3,1100670n/a
29.11 20:00-2,3-8,76,7 ⇐8,2100771n/a
29.11 19:00-2,4-8,96,7 ⇐7,7100774n/a
29.11 18:00-2,2-8,66,7 ⇐7,7100875n/a
29.11 17:00-2,1-8,26,2 ⇐7,7100974n/a
Position: (60.76361111,-48.454444444)

[Back]